Aviation Digital Data Service (ADDS)

Output produced by METARs form (0051 UTC 22 September 2017)
found at http://www.aviationweather.gov/adds/metars/
 
KOAJ 212358Z 2200/2224 00000KT P6SM SCT100 
     FM220300 00000KT 3SM BR SKC 
     FM220600 00000KT 2SM BR SCT005 
     TEMPO 2208/2212 1SM BR BKN005 
     FM221300 VRB04KT P6SM SCT050 AMD LTD TO CLD VIS AND WIND
       
KOAK 212341Z 2200/2306 27016G21KT P6SM FEW025 
     FM220400 27011KT P6SM FEW025 
     FM221300 26007KT P6SM FEW025 SCT035 
     TEMPO 2213/2217 FEW008 SCT022 BKN030 
     FM222200 28012KT P6SM FEW035 
     FM230300 30007KT P6SM SKC
       
TAF KOFF 211800Z 2118/2224 15015G27KT 9999 SCT025 SCT050 QNH2979INS 
     BECMG 2201/2202 16010KT 9999 FEW035 WS020/19045KT QNH2981INS 
     BECMG 2215/2216 17015G25KT 9999 FEW055 QNH2982INS TX34/2121Z TN23/2211Z
       
KOFK 212320Z 2200/2224 16016G26KT P6SM SKC 
     FM220100 15011KT P6SM FEW250 WS020/20050KT 
     FM221300 18015G23KT P6SM FEW200
       
KOGB 212327Z 2200/2224 VRB04KT P6SM VCSH SCT060 BKN100 
     FM220300 VRB03KT P6SM SCT100 
     TEMPO 2207/2211 1SM BR SKC 
     FM221300 VRB03KT P6SM SKC 
     FM221600 07005KT P6SM SCT050
       
KOGD 212340Z 2200/2224 34014G21KT P6SM -SHRA BKN015 OVC035 
     FM220300 33008KT 6SM -RA SCT007 BKN013 
     FM221800 34011KT P6SM -SHRA SCT020 BKN050
       
KOKC 212333Z 2200/2224 16014G20KT P6SM SKC 
     FM221300 17016G24KT P6SM SCT040
       
KOLF 212320Z 2200/2224 30007KT P6SM BKN100 
     FM220600 VRB06KT P6SM VCSH BKN090 
     FM221500 05010KT P6SM VCSH OVC080
       
KOLM 212345Z 2200/2224 00000KT P6SM SCT040 
     FM221100 00000KT 2SM BR FEW002 FEW040 SCT200 
     FM221300 00000KT 1/2SM FG VV002 
     FM221700 VRB03KT 2SM BR BKN004 
     FM221900 24004KT P6SM FEW010 SCT200 
     FM222100 36005KT P6SM SCT200
       
KOLS 212320Z 2200/2224 22014G23KT P6SM SKC 
     FM220200 17009KT P6SM SKC 
     FM221600 20015G25KT P6SM SCT150
       
KOMA 212320Z 2200/2224 17023G32KT P6SM FEW045 
     FM220500 18012G22KT P6SM FEW250 WS020/20050KT 
     FM221300 16015G22KT P6SM SKC 
     FM221900 18018G27KT P6SM FEW200
       
KONP 212332Z 2200/2224 VRB04KT P6SM VCSH SCT020 BKN040 
     FM220300 VRB03KT 5SM BR SCT003 BKN035 
     FM220600 00000KT 2SM BR BKN002 
     FM221500 08004KT P6SM SCT004 BKN025 
     FM221900 02007KT P6SM SCT030
       
KONT 212322Z 2200/2306 25011G18KT P6SM VCSH SCT025 BKN040 
     FM220430 VRB05KT P6SM SCT020 SCT035 
     FM221900 25011G18KT P6SM SCT025 
     FM230400 VRB05KT P6SM SCT025 BKN040
       
KOPF 212320Z 2200/2224 07006KT P6SM SCT100 
     FM220200 VRB03KT P6SM SCT030 
     FM221300 07008KT P6SM VCSH SCT035 
     PROB30 2216/2222 TSRA BKN030CB
       
KORD 212328Z 2200/2306 18007KT P6SM SCT250
       
KORF 212320Z 2200/2224 08005KT P6SM SKC 
     FM220400 14004KT P6SM SKC 
     FM221000 27004KT P6SM SKC 
     FM221500 33007KT P6SM SCT200
       
KORH 212331Z 2200/2224 02008KT P6SM SCT250 
     FM221000 02011G18KT P6SM BKN025
       
KOSH 210540Z 2106/2206 11006KT P6SM VCTS BKN090CB 
     FM210700 02004KT P6SM BKN090 
     FM210900 36004KT P6SM BKN020 
     FM211100 03004KT P6SM BKN003 
     FM211200 04004KT 3/4SM BR BKN003 
     FM211500 08007KT P6SM BKN003 
     FM211900 13007KT P6SM BKN035 
     FM220500 16006KT P6SM SCT140
       
KOTH 212340Z 2200/2224 20007KT P6SM VCSH SCT040 OVC100 
     FM220400 VRB02KT 5SM BR SCT003 
     FM221000 14002KT 1SM BR OVC003 
     FM221600 VRB03KT P6SM SCT003
       
KOTM 212338Z 2200/2224 16013KT P6SM SCT200 
     FM221700 18016G23KT P6SM SKC
       
KOUN 212333Z 2200/2224 15013G19KT P6SM SKC 
     FM221300 17014G21KT P6SM SCT040
       
KOWB 212330Z 2200/2224 15004KT P6SM SKC 
     TEMPO 2211/2213 3SM BR 
     FM221400 12005KT P6SM FEW035
       
KOXR 212340Z 2200/2224 27022KT P6SM SKC 
     FM220300 27012KT P6SM SKC 
     FM220500 28007KT P6SM SKC 
     FM220800 34005KT P6SM SKC 
     FM221000 05005KT P6SM SKC 
     FM221800 26011KT P6SM SKC 
     FM222000 26015G20KT P6SM SKC
       
TAF KOZR 220000Z 2200/2306 VRB06KT 9999 VCTS SCT030CB QNH2992INS 
     TEMPO 2200/2202 9000 -TSRA BKN030CB 
     BECMG 2201/2202 VRB03KT 9999 NSW SCT030 QNH2992INS 
     BECMG 2209/2210 00000KT 8000 BR FEW015 QNH2997INS 
     BECMG 2213/2214 07007KT 9999 NSW FEW035 SCT060 QNH2994INS 
     BECMG 2217/2218 08007KT 9000 -SHRA SCT035 BKN050 QNH2995INS 
     BECMG 2223/2224 08003KT 9999 NSW BKN030 QNH2996INS TX33/2220Z TN21/2211Z